createdAt,value
2018-03-22T00:00:01.015Z,1019.40
2018-03-22T00:01:01.022Z,1019.36
2018-03-22T00:02:00.996Z,1019.38
2018-03-22T00:03:00.989Z,1019.34
2018-03-22T00:04:00.977Z,1019.27
2018-03-22T00:05:00.967Z,1019.31
2018-03-22T00:06:00.958Z,1019.26
2018-03-22T00:07:00.947Z,1019.34
2018-03-22T00:08:00.938Z,1019.34
2018-03-22T00:09:00.929Z,1019.34
2018-03-22T00:10:00.924Z,1019.29
2018-03-22T00:11:00.912Z,1019.25
2018-03-22T00:12:00.898Z,1019.22
2018-03-22T00:13:00.890Z,1019.24
2018-03-22T00:14:00.879Z,1019.20
2018-03-22T00:15:00.870Z,1019.20
2018-03-22T00:16:00.866Z,1019.13
2018-03-22T00:17:00.907Z,1019.14
2018-03-22T00:18:00.842Z,1019.08
2018-03-22T00:19:00.832Z,1019.08
2018-03-22T00:20:00.849Z,1019.08
2018-03-22T00:21:00.814Z,1019.07
2018-03-22T00:22:00.804Z,1019.06
2018-03-22T00:23:00.793Z,1019.05
2018-03-22T00:24:00.785Z,1019.02
2018-03-22T00:25:00.775Z,1019.03
2018-03-22T00:26:00.772Z,1018.97
2018-03-22T00:27:00.755Z,1018.97
2018-03-22T00:28:00.749Z,1018.96
2018-03-22T00:29:00.741Z,1018.95
2018-03-22T00:30:00.731Z,1018.96
2018-03-22T00:31:00.720Z,1018.91
2018-03-22T00:32:00.708Z,1018.90
2018-03-22T00:33:00.697Z,1018.83
2018-03-22T00:34:00.689Z,1018.84
2018-03-22T00:35:00.679Z,1018.86
2018-03-22T00:36:00.669Z,1018.79
2018-03-22T00:37:00.659Z,1018.80
2018-03-22T00:38:00.655Z,1018.74
2018-03-22T00:39:00.644Z,1018.70
2018-03-22T00:40:00.632Z,1018.74
2018-03-22T00:41:00.622Z,1018.70
2018-03-22T00:42:00.616Z,1018.56
2018-03-22T00:43:00.605Z,1018.62
2018-03-22T00:44:00.594Z,1018.58
2018-03-22T00:45:00.582Z,1018.58
2018-03-22T00:46:00.573Z,1018.58
2018-03-22T00:47:00.562Z,1018.54
2018-03-22T00:48:00.559Z,1018.58
2018-03-22T00:49:00.544Z,1018.54
2018-03-22T00:50:00.539Z,1018.51
2018-03-22T00:51:00.528Z,1018.52
2018-03-22T00:52:00.515Z,1018.52
2018-03-22T00:53:00.505Z,1018.43
2018-03-22T00:54:00.500Z,1018.44
2018-03-22T00:55:00.490Z,1018.49
2018-03-22T00:56:00.482Z,1018.43
2018-03-22T00:57:00.466Z,1018.46
2018-03-22T00:58:00.458Z,1018.36
2018-03-22T00:59:00.447Z,1018.37
2018-03-22T01:00:00.439Z,1018.36
2018-03-22T01:01:00.429Z,1018.40
2018-03-22T01:02:00.420Z,1018.30
2018-03-22T01:03:00.409Z,1018.33
2018-03-22T01:04:00.398Z,1018.26
2018-03-22T01:05:00.390Z,1018.24
2018-03-22T01:06:00.381Z,1018.28
2018-03-22T01:07:00.370Z,1018.23
2018-03-22T01:08:00.365Z,1018.20
2018-03-22T01:09:00.355Z,1018.20
2018-03-22T01:10:00.342Z,1018.19
2018-03-22T01:11:00.333Z,1018.17
2018-03-22T01:12:00.327Z,1018.16
2018-03-22T01:13:00.319Z,1018.10
2018-03-22T01:14:00.305Z,1018.11
2018-03-22T01:15:00.295Z,1018.03
2018-03-22T01:16:00.284Z,1018.04
2018-03-22T01:17:00.276Z,1018.02
2018-03-22T01:18:00.266Z,1018.00
2018-03-22T01:19:00.256Z,1017.98
2018-03-22T01:20:00.248Z,1017.98
2018-03-22T01:21:00.238Z,1017.87
2018-03-22T01:22:00.231Z,1017.90
2018-03-22T01:23:00.221Z,1017.93
2018-03-22T01:24:00.207Z,1017.90
2018-03-22T01:25:00.200Z,1017.81
2018-03-22T01:26:00.198Z,1017.83
2018-03-22T01:27:00.182Z,1017.77
2018-03-22T01:28:00.169Z,1017.76
2018-03-22T01:29:00.160Z,1017.72
2018-03-22T01:30:00.155Z,1017.72
2018-03-22T01:31:00.141Z,1017.68
2018-03-22T01:32:00.132Z,1017.67
2018-03-22T01:33:00.122Z,1017.65
2018-03-22T01:34:00.114Z,1017.62
2018-03-22T01:35:00.103Z,1017.58
2018-03-22T01:36:00.093Z,1017.60
2018-03-22T01:37:00.085Z,1017.56
2018-03-22T01:38:00.074Z,1017.51
2018-03-22T01:39:00.064Z,1017.53
2018-03-22T01:40:00.064Z,1017.49
2018-03-22T01:41:00.048Z,1017.43
2018-03-22T01:42:00.035Z,1017.40
2018-03-22T01:43:00.025Z,1017.39
2018-03-22T01:44:00.020Z,1017.34
2018-03-22T01:45:00.011Z,1017.35
2018-03-22T01:45:59.997Z,1017.30
2018-03-22T01:46:59.987Z,1017.27
2018-03-22T01:47:59.976Z,1017.28
2018-03-22T01:48:59.967Z,1017.25
2018-03-22T01:49:59.957Z,1017.22
2018-03-22T01:50:59.947Z,1017.20
2018-03-22T01:51:59.940Z,1017.24
2018-03-22T01:52:59.935Z,1017.16
2018-03-22T01:53:59.918Z,1017.11
2018-03-22T01:54:59.914Z,1017.07
2018-03-22T01:55:59.897Z,1017.12
2018-03-22T01:56:59.888Z,1017.03
2018-03-22T01:57:59.878Z,1017.01
2018-03-22T01:58:59.867Z,1016.99
2018-03-22T01:59:59.858Z,1017.02
2018-03-22T02:00:59.849Z,1016.93
2018-03-22T02:01:59.838Z,1016.99
2018-03-22T02:02:59.826Z,1016.87
2018-03-22T02:03:59.822Z,1016.93
2018-03-22T02:04:59.813Z,1016.89
2018-03-22T02:05:59.803Z,1016.91
2018-03-22T02:06:59.792Z,1016.88
2018-03-22T02:07:59.778Z,1016.86
2018-03-22T02:08:59.768Z,1016.85
2018-03-22T02:09:59.760Z,1016.78
2018-03-22T02:10:59.748Z,1016.80
2018-03-22T02:11:59.740Z,1016.72
2018-03-22T02:12:59.730Z,1016.77
2018-03-22T02:13:59.721Z,1016.78
2018-03-22T02:14:59.709Z,1016.79
2018-03-22T02:15:59.704Z,1016.69
2018-03-22T02:16:59.689Z,1016.72
2018-03-22T02:17:59.688Z,1016.71
2018-03-22T02:18:59.674Z,1016.70
2018-03-22T02:19:59.659Z,1016.64
2018-03-22T02:20:59.649Z,1016.61
2018-03-22T02:21:59.640Z,1016.59
2018-03-22T02:22:59.630Z,1016.56
2018-03-22T02:23:59.624Z,1016.61
2018-03-22T02:24:59.615Z,1016.58
2018-03-22T02:25:59.601Z,1016.51
2018-03-22T02:26:59.590Z,1016.49
2018-03-22T02:27:59.581Z,1016.53
2018-03-22T02:28:59.572Z,1016.54
2018-03-22T02:29:59.564Z,1016.47
2018-03-22T02:30:59.552Z,1016.51
2018-03-22T02:31:59.542Z,1016.53
2018-03-22T02:32:59.535Z,1016.55
2018-03-22T02:33:59.524Z,1016.64
2018-03-22T02:34:59.517Z,1016.65
2018-03-22T02:35:59.506Z,1016.72
2018-03-22T02:36:59.497Z,1016.64
2018-03-22T02:37:59.488Z,1016.69
2018-03-22T02:38:59.477Z,1016.69
2018-03-22T02:39:59.463Z,1016.72
2018-03-22T02:40:59.455Z,1016.69
2018-03-22T02:41:59.445Z,1016.66
2018-03-22T02:42:59.435Z,1016.61
2018-03-22T02:43:59.425Z,1016.57
2018-03-22T02:44:59.417Z,1016.51
2018-03-22T02:45:59.412Z,1016.57
2018-03-22T02:46:59.397Z,1016.55
2018-03-22T02:47:59.385Z,1016.50
2018-03-22T02:48:59.377Z,1016.52
2018-03-22T02:49:59.371Z,1016.45
2018-03-22T02:50:59.361Z,1016.43
2018-03-22T02:51:59.347Z,1016.42
2018-03-22T02:52:59.348Z,1016.35
2018-03-22T02:53:59.328Z,1016.31
2018-03-22T02:54:59.319Z,1016.32
2018-03-22T02:55:59.308Z,1016.33
2018-03-22T02:56:59.300Z,1016.23
2018-03-22T02:57:59.298Z,1016.20
2018-03-22T02:58:59.283Z,1016.21
2018-03-22T02:59:59.273Z,1016.16
2018-03-22T03:00:59.260Z,1016.04
2018-03-22T03:01:59.255Z,1016.03
2018-03-22T03:02:59.245Z,1016.05
2018-03-22T03:03:59.231Z,1016.03
2018-03-22T03:04:59.221Z,1016.08
2018-03-22T03:05:59.212Z,1016.06
2018-03-22T03:06:59.202Z,1016.05
2018-03-22T03:07:59.192Z,1016.03
2018-03-22T03:08:59.183Z,1016.04
2018-03-22T03:09:59.175Z,1016.01
2018-03-22T03:10:59.163Z,1016.03
2018-03-22T03:11:59.158Z,1015.97
2018-03-22T03:12:59.146Z,1015.99
2018-03-22T03:13:59.136Z,1015.97
2018-03-22T03:14:59.126Z,1015.97
2018-03-22T03:15:59.121Z,1015.94
2018-03-22T03:16:59.110Z,1015.96
2018-03-22T03:17:59.097Z,1015.91
2018-03-22T03:18:59.092Z,1015.90
2018-03-22T03:19:59.090Z,1015.89
2018-03-22T03:20:59.072Z,1015.86
2018-03-22T03:21:59.067Z,1015.80
2018-03-22T03:22:59.049Z,1015.82
2018-03-22T03:23:59.040Z,1015.86
2018-03-22T03:24:59.031Z,1015.82
2018-03-22T03:25:59.022Z,1015.78
2018-03-22T03:26:59.016Z,1015.76
2018-03-22T03:27:59.001Z,1015.72
2018-03-22T03:28:58.993Z,1015.71
2018-03-22T03:29:58.986Z,1015.70
2018-03-22T03:30:58.977Z,1015.68
2018-03-22T03:31:58.962Z,1015.68
2018-03-22T03:32:58.976Z,1015.69
2018-03-22T03:33:58.947Z,1015.66
2018-03-22T03:34:58.939Z,1015.62
2018-03-22T03:35:58.924Z,1015.56
2018-03-22T03:36:58.914Z,1015.60
2018-03-22T03:37:58.908Z,1015.59
2018-03-22T03:38:58.896Z,1015.52
2018-03-22T03:39:58.888Z,1015.50
2018-03-22T03:40:58.877Z,1015.43
2018-03-22T03:41:58.868Z,1015.47
2018-03-22T03:42:58.857Z,1015.44
2018-03-22T03:43:58.849Z,1015.40
2018-03-22T03:44:58.839Z,1015.43
2018-03-22T03:45:58.829Z,1015.41
2018-03-22T03:46:58.819Z,1015.46
2018-03-22T03:47:58.814Z,1015.43
2018-03-22T03:48:58.804Z,1015.38
2018-03-22T03:49:58.792Z,1015.45
2018-03-22T03:50:58.781Z,1015.47
2018-03-22T03:51:58.776Z,1015.39
2018-03-22T03:52:58.767Z,1015.41
2018-03-22T03:53:58.755Z,1015.43
2018-03-22T03:54:58.743Z,1015.38
2018-03-22T03:55:58.735Z,1015.33
2018-03-22T03:56:58.725Z,1015.30
2018-03-22T03:57:58.715Z,1015.26
2018-03-22T03:58:58.704Z,1015.25
2018-03-22T03:59:58.696Z,1015.25
2018-03-22T04:00:58.687Z,1015.24
2018-03-22T04:01:58.680Z,1015.25
2018-03-22T04:02:58.670Z,1015.22
2018-03-22T04:03:58.657Z,1015.34
2018-03-22T04:04:58.648Z,1015.33
2018-03-22T04:05:58.642Z,1015.27
2018-03-22T04:06:58.633Z,1015.27
2018-03-22T04:07:58.619Z,1015.19
2018-03-22T04:08:58.609Z,1015.18
2018-03-22T04:09:58.600Z,1015.11
2018-03-22T04:10:58.591Z,1015.12
2018-03-22T04:11:58.582Z,1015.10
2018-03-22T04:12:58.573Z,1015.05
2018-03-22T04:13:58.563Z,1015.05
2018-03-22T04:14:58.553Z,1015.02
2018-03-22T04:15:58.544Z,1015.04
2018-03-22T04:16:58.533Z,1015.05
2018-03-22T04:17:58.524Z,1015.03
2018-03-22T04:18:58.514Z,1015.00
2018-03-22T04:19:58.508Z,1015.01
2018-03-22T04:20:58.499Z,1014.96
2018-03-22T04:21:58.486Z,1014.88
2018-03-22T04:22:58.477Z,1014.86
2018-03-22T04:23:58.471Z,1014.85
2018-03-22T04:24:58.461Z,1014.86
2018-03-22T04:25:58.448Z,1014.79
2018-03-22T04:26:58.437Z,1014.88
2018-03-22T04:27:58.429Z,1014.83
2018-03-22T04:28:58.420Z,1014.77
2018-03-22T04:29:58.410Z,1014.72
2018-03-22T04:30:58.399Z,1014.64
2018-03-22T04:31:58.389Z,1014.68
2018-03-22T04:32:58.380Z,1014.65
2018-03-22T04:33:58.374Z,1014.65
2018-03-22T04:34:58.364Z,1014.62
2018-03-22T04:35:58.351Z,1014.62
2018-03-22T04:36:58.341Z,1014.55
2018-03-22T04:37:58.335Z,1014.62
2018-03-22T04:38:58.326Z,1014.53
2018-03-22T04:39:58.315Z,1014.58
2018-03-22T04:40:58.302Z,1014.53
2018-03-22T04:41:58.293Z,1014.62
2018-03-22T04:42:58.284Z,1014.57
2018-03-22T04:43:58.273Z,1014.64
2018-03-22T04:44:58.264Z,1014.60
2018-03-22T04:45:58.256Z,1014.66
2018-03-22T04:46:58.245Z,1014.60
2018-03-22T04:47:58.234Z,1014.51
2018-03-22T04:48:58.229Z,1014.48
2018-03-22T04:49:58.214Z,1014.51
2018-03-22T04:50:58.204Z,1014.56
2018-03-22T04:51:58.199Z,1014.53
2018-03-22T04:52:58.190Z,1014.49
2018-03-22T04:53:58.181Z,1014.47
2018-03-22T04:54:58.165Z,1014.44
2018-03-22T04:55:58.160Z,1014.43
2018-03-22T04:56:58.150Z,1014.40
2018-03-22T04:57:58.138Z,1014.41
2018-03-22T04:58:58.127Z,1014.38
2018-03-22T04:59:58.178Z,1014.41
2018-03-22T05:00:58.108Z,1014.36
2018-03-22T05:01:58.098Z,1014.34
2018-03-22T05:02:58.087Z,1014.31
2018-03-22T05:03:58.085Z,1014.38
2018-03-22T05:04:58.073Z,1014.39
2018-03-22T05:05:58.060Z,1014.26
2018-03-22T05:06:58.062Z,1014.28
2018-03-22T05:07:58.040Z,1014.17
2018-03-22T05:08:58.032Z,1014.17
2018-03-22T05:09:58.021Z,1014.09
2018-03-22T05:10:58.010Z,1014.10
2018-03-22T05:11:58.001Z,1014.13
2018-03-22T05:12:57.992Z,1014.09
2018-03-22T05:13:57.984Z,1014.06
2018-03-22T05:14:57.973Z,1014.01
2018-03-22T05:15:57.966Z,1014.06
2018-03-22T05:16:57.955Z,1014.03
2018-03-22T05:17:57.946Z,1014.07
2018-03-22T05:18:57.935Z,1013.97
2018-03-22T05:19:57.923Z,1013.92
2018-03-22T05:20:57.912Z,1013.98
2018-03-22T05:21:57.904Z,1013.97
2018-03-22T05:22:57.897Z,1013.92
2018-03-22T05:23:57.884Z,1013.91
2018-03-22T05:24:57.890Z,1013.92
2018-03-22T05:25:57.864Z,1013.97
2018-03-22T05:26:57.854Z,1013.95
2018-03-22T05:27:57.845Z,1013.91
2018-03-22T05:28:57.834Z,1013.91
2018-03-22T05:29:57.829Z,1013.88
2018-03-22T05:30:57.818Z,1013.88
2018-03-22T05:31:57.805Z,1013.88
2018-03-22T05:32:57.796Z,1013.87
2018-03-22T05:33:57.786Z,1013.81
2018-03-22T05:34:57.776Z,1013.82
2018-03-22T05:35:57.776Z,1013.80
2018-03-22T05:36:57.761Z,1013.81
2018-03-22T05:37:57.747Z,1013.74
2018-03-22T05:38:57.736Z,1013.79
2018-03-22T05:39:57.727Z,1013.71
2018-03-22T05:40:57.717Z,1013.78
2018-03-22T05:41:57.708Z,1013.77
2018-03-22T05:42:57.698Z,1013.75
2018-03-22T05:43:57.687Z,1013.75
2018-03-22T05:44:57.679Z,1013.71
2018-03-22T05:45:57.668Z,1013.69
2018-03-22T05:46:57.658Z,1013.80
2018-03-22T05:47:57.652Z,1013.73
2018-03-22T05:48:57.643Z,1013.72
2018-03-22T05:49:57.633Z,1013.73
2018-03-22T05:50:57.623Z,1013.78
2018-03-22T05:51:57.609Z,1013.77
2018-03-22T05:52:57.601Z,1013.81
2018-03-22T05:53:57.593Z,1013.81
2018-03-22T05:54:57.580Z,1013.75
2018-03-22T05:55:57.570Z,1013.77
2018-03-22T05:56:57.561Z,1013.81
2018-03-22T05:57:57.552Z,1013.84
2018-03-22T05:58:57.539Z,1013.81
2018-03-22T05:59:57.530Z,1013.86
2018-03-22T06:00:57.521Z,1013.76
2018-03-22T06:01:57.515Z,1013.85
2018-03-22T06:02:57.504Z,1013.85
2018-03-22T06:03:57.492Z,1013.87
2018-03-22T06:04:57.480Z,1013.81
2018-03-22T06:05:57.472Z,1013.79
2018-03-22T06:06:57.462Z,1013.84
2018-03-22T06:07:57.453Z,1013.77
2018-03-22T06:08:57.441Z,1013.75
2018-03-22T06:09:57.437Z,1013.76
2018-03-22T06:10:57.436Z,1013.74
2018-03-22T06:11:57.412Z,1013.75
2018-03-22T06:12:57.402Z,1013.78
2018-03-22T06:13:57.397Z,1013.71
2018-03-22T06:14:57.384Z,1013.67
2018-03-22T06:15:57.372Z,1013.69
2018-03-22T06:16:57.363Z,1013.68
2018-03-22T06:17:57.354Z,1013.68
2018-03-22T06:18:57.342Z,1013.62
2018-03-22T06:19:57.332Z,1013.61
2018-03-22T06:20:57.324Z,1013.64
2018-03-22T06:21:57.319Z,1013.62
2018-03-22T06:22:57.303Z,1013.63
2018-03-22T06:23:57.294Z,1013.59
2018-03-22T06:24:57.283Z,1013.57
2018-03-22T06:25:57.273Z,1013.66
2018-03-22T06:26:57.266Z,1013.65
2018-03-22T06:27:57.258Z,1013.58
2018-03-22T06:28:57.247Z,1013.58
2018-03-22T06:29:57.234Z,1013.58
2018-03-22T06:30:57.222Z,1013.50
2018-03-22T06:31:57.217Z,1013.52
2018-03-22T06:32:57.208Z,1013.47
2018-03-22T06:33:57.195Z,1013.50
2018-03-22T06:34:57.182Z,1013.48
2018-03-22T06:35:57.173Z,1013.51
2018-03-22T06:36:57.168Z,1013.50
2018-03-22T06:37:57.155Z,1013.56
2018-03-22T06:38:57.143Z,1013.58
2018-03-22T06:39:57.133Z,1013.59
2018-03-22T06:40:57.125Z,1013.56
2018-03-22T06:41:57.117Z,1013.48
2018-03-22T06:42:57.106Z,1013.52
2018-03-22T06:43:57.092Z,1013.52
2018-03-22T06:44:57.083Z,1013.46
2018-03-22T06:45:57.077Z,1013.48
2018-03-22T06:46:57.065Z,1013.42
2018-03-22T06:47:57.051Z,1013.44
2018-03-22T06:48:57.041Z,1013.46
2018-03-22T06:49:57.032Z,1013.39
2018-03-22T06:50:57.022Z,1013.41
2018-03-22T06:51:57.011Z,1013.36
2018-03-22T06:52:57.001Z,1013.28
2018-03-22T06:53:56.991Z,1013.25
2018-03-22T06:54:56.981Z,1013.28
2018-03-22T06:55:56.971Z,1013.20
2018-03-22T06:56:56.977Z,1013.16
2018-03-22T06:57:56.950Z,1013.17
2018-03-22T06:58:56.944Z,1013.19
2018-03-22T06:59:56.933Z,1013.13
2018-03-22T07:00:56.924Z,1013.15
2018-03-22T07:01:56.909Z,1013.16
2018-03-22T07:02:56.898Z,1013.09
2018-03-22T07:03:56.892Z,1013.08
2018-03-22T07:04:56.882Z,1013.13
2018-03-22T07:05:56.870Z,1013.07
2018-03-22T07:06:56.884Z,1013.07
2018-03-22T07:07:56.849Z,1013.10
2018-03-22T07:08:56.839Z,1013.03
2018-03-22T07:09:56.827Z,1012.98
2018-03-22T07:10:56.817Z,1012.97
2018-03-22T07:11:56.811Z,1012.97
2018-03-22T07:12:56.800Z,1012.92
2018-03-22T07:13:56.788Z,1012.96
2018-03-22T07:14:56.776Z,1012.90
2018-03-22T07:15:56.766Z,1012.92
2018-03-22T07:16:56.774Z,1012.82
2018-03-22T07:17:56.747Z,1012.87
2018-03-22T07:18:56.736Z,1012.86
2018-03-22T07:19:56.725Z,1012.84
2018-03-22T07:20:56.719Z,1012.88
2018-03-22T07:21:56.707Z,1012.79
2018-03-22T07:22:56.695Z,1012.78
2018-03-22T07:23:56.689Z,1012.91
2018-03-22T07:24:56.679Z,1012.86
2018-03-22T07:25:56.722Z,1012.80
2018-03-22T07:26:56.659Z,1012.87
2018-03-22T07:27:56.644Z,1012.79
2018-03-22T07:28:56.636Z,1012.84
2018-03-22T07:29:56.626Z,1012.81
2018-03-22T07:30:56.613Z,1012.80
2018-03-22T07:31:56.604Z,1012.84
2018-03-22T07:32:56.595Z,1012.76
2018-03-22T07:33:56.584Z,1012.73
2018-03-22T07:34:56.579Z,1012.78
2018-03-22T07:35:56.569Z,1012.73
2018-03-22T07:36:56.553Z,1012.73
2018-03-22T07:37:56.549Z,1012.76
2018-03-22T07:38:56.537Z,1012.80
2018-03-22T07:39:56.523Z,1012.68
2018-03-22T07:40:56.513Z,1012.72
2018-03-22T07:41:56.503Z,1012.71
2018-03-22T07:42:56.493Z,1012.73
2018-03-22T07:43:56.487Z,1012.72
2018-03-22T07:44:56.477Z,1012.71
2018-03-22T07:45:56.463Z,1012.72
2018-03-22T07:46:56.453Z,1012.69
2018-03-22T07:47:56.444Z,1012.64
2018-03-22T07:48:56.434Z,1012.71
2018-03-22T07:49:56.425Z,1012.69
2018-03-22T07:50:56.412Z,1012.64
2018-03-22T07:51:56.402Z,1012.63
2018-03-22T07:52:56.394Z,1012.63
2018-03-22T07:53:56.383Z,1012.57
2018-03-22T07:54:56.372Z,1012.63
2018-03-22T07:55:56.366Z,1012.57
2018-03-22T07:56:56.356Z,1012.59
2018-03-22T07:57:56.350Z,1012.57
2018-03-22T07:58:56.388Z,1012.55
2018-03-22T07:59:56.322Z,1012.58
2018-03-22T08:00:56.314Z,1012.61
2018-03-22T08:01:56.303Z,1012.57
2018-03-22T08:02:56.293Z,1012.60
2018-03-22T08:03:56.283Z,1012.56
2018-03-22T08:04:56.274Z,1012.58
2018-03-22T08:05:56.269Z,1012.53
2018-03-22T08:06:56.253Z,1012.56
2018-03-22T08:07:56.244Z,1012.56
2018-03-22T08:08:56.233Z,1012.49
2018-03-22T08:09:56.228Z,1012.54
2018-03-22T08:10:56.221Z,1012.54
2018-03-22T08:11:56.206Z,1012.50
2018-03-22T08:12:56.194Z,1012.50
2018-03-22T08:13:56.185Z,1012.48
2018-03-22T08:14:56.173Z,1012.43
2018-03-22T08:15:56.165Z,1012.49
2018-03-22T08:16:56.154Z,1012.48
2018-03-22T08:17:56.146Z,1012.46
2018-03-22T08:18:56.133Z,1012.45
2018-03-22T08:19:56.129Z,1012.44
2018-03-22T08:20:56.119Z,1012.51
2018-03-22T08:21:56.105Z,1012.47
2018-03-22T08:22:56.094Z,1012.44
2018-03-22T08:23:56.089Z,1012.44
2018-03-22T08:24:56.080Z,1012.35
2018-03-22T08:25:56.072Z,1012.37
2018-03-22T08:26:56.056Z,1012.31
2018-03-22T08:27:56.047Z,1012.30
2018-03-22T08:28:56.037Z,1012.27
2018-03-22T08:29:56.029Z,1012.26
2018-03-22T08:30:56.018Z,1012.23
2018-03-22T08:31:56.007Z,1012.24
2018-03-22T08:32:55.998Z,1012.22
2018-03-22T08:33:55.993Z,1012.18
2018-03-22T08:34:55.983Z,1012.18
2018-03-22T08:35:55.969Z,1012.16
2018-03-22T08:36:55.959Z,1012.07
2018-03-22T08:37:55.955Z,1012.11
2018-03-22T08:38:55.944Z,1012.09
2018-03-22T08:39:55.929Z,1012.11
2018-03-22T08:40:55.920Z,1012.05
2018-03-22T08:41:55.911Z,1012.10
2018-03-22T08:42:55.901Z,1011.99
2018-03-22T08:43:55.892Z,1012.02
2018-03-22T08:44:55.883Z,1012.00
2018-03-22T08:45:55.874Z,1011.96
2018-03-22T08:46:55.863Z,1011.97
2018-03-22T08:47:55.855Z,1011.96
2018-03-22T08:48:55.844Z,1011.96
2018-03-22T08:49:55.839Z,1011.98
2018-03-22T08:50:55.825Z,1011.90
2018-03-22T08:51:55.820Z,1011.94
2018-03-22T08:52:55.812Z,1011.89
2018-03-22T08:53:55.798Z,1011.86
2018-03-22T08:54:55.787Z,1011.83
2018-03-22T08:55:55.782Z,1011.86
2018-03-22T08:56:55.773Z,1011.83
2018-03-22T08:57:55.759Z,1011.88
2018-03-22T08:58:55.751Z,1011.85
2018-03-22T08:59:55.740Z,1011.84
2018-03-22T09:00:55.731Z,1011.83
2018-03-22T09:01:55.721Z,1011.78
2018-03-22T09:02:55.712Z,1011.80
2018-03-22T09:03:55.702Z,1011.77
2018-03-22T09:04:55.699Z,1011.79
2018-03-22T09:05:55.688Z,1011.77
2018-03-22T09:06:55.678Z,1011.74
2018-03-22T09:07:55.665Z,1011.72
2018-03-22T09:08:55.657Z,1011.69
2018-03-22T09:09:55.651Z,1011.77
2018-03-22T09:10:55.650Z,1011.74
2018-03-22T09:11:55.627Z,1011.65
2018-03-22T09:12:55.618Z,1011.61
2018-03-22T09:13:55.610Z,1011.60
2018-03-22T09:14:55.599Z,1011.61
2018-03-22T09:15:55.591Z,1011.66
2018-03-22T09:16:55.631Z,1011.58
2018-03-22T09:17:55.576Z,1011.68
2018-03-22T09:18:55.565Z,1011.70
2018-03-22T09:19:55.561Z,1011.63
2018-03-22T09:20:55.543Z,1011.63
2018-03-22T09:21:55.535Z,1011.69
2018-03-22T09:22:55.524Z,1011.63
2018-03-22T09:23:55.516Z,1011.61
2018-03-22T09:24:55.506Z,1011.55
2018-03-22T09:25:55.526Z,1011.63
2018-03-22T09:26:55.488Z,1011.64
2018-03-22T09:27:55.524Z,1011.62
2018-03-22T09:28:55.469Z,1011.53
2018-03-22T09:29:55.465Z,1011.59
2018-03-22T09:30:55.456Z,1011.58
2018-03-22T09:31:55.440Z,1011.62
2018-03-22T09:32:55.430Z,1011.62
2018-03-22T09:33:55.423Z,1011.60
2018-03-22T09:34:55.462Z,1011.62
2018-03-22T09:35:55.407Z,1011.67
2018-03-22T09:36:55.397Z,1011.65
2018-03-22T09:37:55.385Z,1011.69
2018-03-22T09:38:55.376Z,1011.70
2018-03-22T09:39:55.365Z,1011.71
2018-03-22T09:40:55.356Z,1011.67
2018-03-22T09:41:55.353Z,1011.68
2018-03-22T09:42:55.338Z,1011.68
2018-03-22T09:43:55.330Z,1011.64
2018-03-22T09:44:55.319Z,1011.64
2018-03-22T09:45:55.309Z,1011.61
2018-03-22T09:46:55.299Z,1011.67
2018-03-22T09:47:55.294Z,1011.66
2018-03-22T09:48:55.287Z,1011.60
2018-03-22T09:49:55.277Z,1011.61
2018-03-22T09:50:55.266Z,1011.60
2018-03-22T09:51:55.255Z,1011.59
2018-03-22T09:52:55.244Z,1011.58
2018-03-22T09:53:55.237Z,1011.53
2018-03-22T09:54:55.227Z,1011.57
2018-03-22T09:55:55.217Z,1011.47
2018-03-22T09:56:55.237Z,1011.49
2018-03-22T09:57:55.199Z,1011.52
2018-03-22T09:58:55.190Z,1011.56
2018-03-22T09:59:55.186Z,1011.50
2018-03-22T10:00:55.172Z,1011.53
2018-03-22T10:01:55.167Z,1011.49
2018-03-22T10:02:55.162Z,1011.53
2018-03-22T10:03:55.144Z,1011.51
2018-03-22T10:04:55.134Z,1011.49
2018-03-22T10:05:55.127Z,1011.51
2018-03-22T10:06:55.116Z,1011.48
2018-03-22T10:07:55.112Z,1011.55
2018-03-22T10:08:55.105Z,1011.50
2018-03-22T10:09:55.091Z,1011.54
2018-03-22T10:10:55.080Z,1011.48
2018-03-22T10:11:55.073Z,1011.43
2018-03-22T10:12:55.063Z,1011.43
2018-03-22T10:13:55.054Z,1011.43
2018-03-22T10:14:55.045Z,1011.43
2018-03-22T10:15:55.036Z,1011.44
2018-03-22T10:16:55.028Z,1011.46
2018-03-22T10:17:55.019Z,1011.39
2018-03-22T10:18:55.012Z,1011.34
2018-03-22T10:19:55.004Z,1011.39
2018-03-22T10:20:54.995Z,1011.34
2018-03-22T10:21:54.983Z,1011.32
2018-03-22T10:22:54.973Z,1011.30
2018-03-22T10:23:54.966Z,1011.33
2018-03-22T10:24:54.956Z,1011.31
2018-03-22T10:25:54.948Z,1011.22
2018-03-22T10:26:54.940Z,1011.25
2018-03-22T10:27:54.936Z,1011.29
2018-03-22T10:28:54.926Z,1011.32
2018-03-22T10:29:54.913Z,1011.35
2018-03-22T10:30:54.905Z,1011.33
2018-03-22T10:31:54.900Z,1011.33
2018-03-22T10:32:54.892Z,1011.39
2018-03-22T10:33:54.879Z,1011.34
2018-03-22T10:34:54.870Z,1011.39
2018-03-22T10:35:54.868Z,1011.35
2018-03-22T10:36:54.853Z,1011.32
2018-03-22T10:37:54.846Z,1011.30
2018-03-22T10:38:54.836Z,1011.30
2018-03-22T10:39:54.828Z,1011.29
2018-03-22T10:40:54.820Z,1011.28
2018-03-22T10:41:54.842Z,1011.31
2018-03-22T10:42:54.806Z,1011.25
2018-03-22T10:43:54.794Z,1011.23
2018-03-22T10:44:54.786Z,1011.22
2018-03-22T10:45:54.781Z,1011.18
2018-03-22T10:46:54.773Z,1011.18
2018-03-22T10:47:54.760Z,1011.15
2018-03-22T10:48:54.753Z,1011.18
2018-03-22T10:49:54.744Z,1011.11
2018-03-22T10:50:54.735Z,1011.14
2018-03-22T10:51:54.726Z,1011.07
2018-03-22T10:52:54.720Z,1011.07
2018-03-22T10:53:54.714Z,1011.13
2018-03-22T10:54:54.703Z,1011.04
2018-03-22T10:55:54.695Z,1011.07
2018-03-22T10:56:54.687Z,1011.05
2018-03-22T10:57:54.681Z,1011.02
2018-03-22T10:58:54.669Z,1011.05
2018-03-22T10:59:54.666Z,1011.02
2018-03-22T11:00:54.659Z,1011.02
2018-03-22T11:01:54.647Z,1010.98
2018-03-22T11:02:54.637Z,1010.92
2018-03-22T11:03:54.633Z,1010.92
2018-03-22T11:04:54.629Z,1010.94
2018-03-22T11:05:54.614Z,1010.91
2018-03-22T11:06:54.607Z,1010.90
2018-03-22T11:07:54.597Z,1010.81
2018-03-22T11:08:54.591Z,1010.86
2018-03-22T11:09:54.583Z,1010.81
2018-03-22T11:10:54.574Z,1010.83
2018-03-22T11:11:54.570Z,1010.87
2018-03-22T11:12:54.559Z,1010.85
2018-03-22T11:13:54.578Z,1010.80
2018-03-22T11:14:54.546Z,1010.81
2018-03-22T11:15:54.535Z,1010.86
2018-03-22T11:16:54.539Z,1010.86
2018-03-22T11:17:54.523Z,1010.83
2018-03-22T11:18:54.514Z,1010.85
2018-03-22T11:19:54.507Z,1010.78
2018-03-22T11:20:54.497Z,1010.75
2018-03-22T11:21:54.563Z,1010.68
2018-03-22T11:22:54.480Z,1010.67
2018-03-22T11:23:54.473Z,1010.68
2018-03-22T11:24:54.470Z,1010.67
2018-03-22T11:25:54.462Z,1010.64
2018-03-22T11:26:54.460Z,1010.61
2018-03-22T11:27:54.445Z,1010.59
2018-03-22T11:28:54.436Z,1010.55
2018-03-22T11:29:54.432Z,1010.59
2018-03-22T11:30:54.421Z,1010.59
2018-03-22T11:31:54.412Z,1010.59
2018-03-22T11:32:54.406Z,1010.61
2018-03-22T11:33:54.399Z,1010.62
2018-03-22T11:34:54.396Z,1010.65
2018-03-22T11:35:54.385Z,1010.60
2018-03-22T11:36:54.377Z,1010.56
2018-03-22T11:37:54.374Z,1010.52
2018-03-22T11:38:54.365Z,1010.53
2018-03-22T11:39:54.356Z,1010.52
2018-03-22T11:40:54.349Z,1010.46
2018-03-22T11:41:54.341Z,1010.46
2018-03-22T11:42:54.334Z,1010.48
2018-03-22T11:43:54.330Z,1010.48
2018-03-22T11:44:54.323Z,1010.41
2018-03-22T11:45:54.314Z,1010.43
2018-03-22T11:46:54.305Z,1010.43
2018-03-22T11:47:54.299Z,1010.43
2018-03-22T11:48:54.292Z,1010.50
2018-03-22T11:49:54.285Z,1010.52
2018-03-22T11:50:54.276Z,1010.45
2018-03-22T11:51:54.269Z,1010.45
2018-03-22T11:52:54.262Z,1010.49
2018-03-22T11:53:54.306Z,1010.48
2018-03-22T11:54:54.247Z,1010.46
2018-03-22T11:55:54.251Z,1010.35
2018-03-22T11:56:54.238Z,1010.38
2018-03-22T11:57:54.231Z,1010.43
2018-03-22T11:58:54.222Z,1010.42
2018-03-22T11:59:54.212Z,1010.43
2018-03-22T12:00:54.209Z,1010.38
2018-03-22T12:01:54.251Z,1010.32
2018-03-22T12:02:54.190Z,1010.42
2018-03-22T12:03:54.184Z,1010.38
2018-03-22T12:04:54.176Z,1010.39